In Rescue
 
Open Full Screen Window  High Contrast Mode
Wind Gusting 00 knots
05
November 19, 2019 12:36 PM CST
Weather Information
Wind Direction
  270 °
Wind Speed
  05 kt (6 mph)
Wind Gust
  00 kt (0 mph)
Altimeter
29.80 in
Visibility
10 SM
Temperature
04° C
39° F
Dewpoint
03° C
37° F
Humidity
93%
1hr Rain Fall
00.00 in.
24hr Rain Fall
00.17 in.
Sky Condition
Overcast @ 700 ft
IFR

METAR KSYN 191836Z AUTO 27005KT 10SM OVC007 04/03 A2980 RMK AO2 T00420027

FAA Disclaimer: The data displayed is for advisory purposes only and is not to be used for flight planning or operations.